DAUO/ELU METAR and TAF weather

Enter ICAO airport designator
Station Type Date Time Source
DAUO METAR 2021/02/25 16:00 UTC NOAA

DAUO 251600Z 09010KT 050V120 9999 FEW040 18/06 Q1026


Station Type Date Time Source
DAUO Decoded METAR 2021/02/25 16:00 UTC NOAA

El Oued, Algeria (DAUO) 33-30N 006-07E 63M
Feb 25, 2021 - 11:00 AM EST / 2021.02.25 1600 UTC
Wind: from the E (090 degrees) at 12 MPH (10 KT) (direction variable):0
Visibility: greater than 7 mile(s):0
Sky conditions: mostly clear
Temperature: 64 F (18 C)
Dew Point: 42 F (6 C)
Relative Humidity: 45%
Pressure (altimeter): 30.30 in. Hg (1026 hPa)
ob: DAUO 251600Z 09010KT 050V120 9999 FEW040 18/06 Q1026
cycle: 16

Station Type Date Time Source
DAUO TAF 2017/11/09 18:03 UTC NOAA

TAF DAUO 091700Z 0918/1009 28010KT 9999 SCT033 SCT100 PROB30
TEMPO 0918/0924 28015G25KT 5000 -TSRA FEW036CB

Example: see airport list